Duluth, MN (55701)

9:54 PM CST on February 05, 2016 (GMT -0600)
Chester Park WX | | Change Station
CLOSE
Current Station
Personal Weather Station
Location: Duluth, MN
Elevation: 1040 ft
Nearby Weather Stations

Elev 1040 ft 46.81 °N, 92.08 °W | Updated 4 minutes ago

Overcast
Overcast
24.8 °F
Feels Like 25 °F
N
0.0
Wind Variable Wind from SW
Gusts 3.0 mph

Today
High -- | Low -- °F
--% Chance of Precip.
Yesterday
High -- | Low -- °F
Precip. -- in
Pressure 30.17 in
Visibility 10.0 miles
Clouds Overcast 2500 ft
Windchill 25 °F
Dew Point 18 °F
Humidity 74%
Rainfall 0.00 in
Snow Depth Not available.
7:28 AM 5:17 PM
Waning Crescent, 8% visible
METAR KDLH 060255Z 25009KT 10SM OVC025 M04/M11 A3008 RMK AO2 SLP216 T10441106 58003
Pressure 30.17 in
Visibility 10.0 miles
Clouds Overcast 2500 ft
Windchill 25 °F
Dew Point 18 °F
Humidity 74%
Rainfall 0.00 in
Snow Depth Not available.
7:28 AM 5:17 PM
Waning Crescent, 8% visible
METAR KDLH 060255Z 25009KT 10SM OVC025 M04/M11 A3008 RMK AO2 SLP216 T10441106 58003

10-Day Weather Forecast

Almanac

Astronomy

Feb. 05, 2016 Rise Set
Actual Time
Civil Twilight
Nautical Twilight
Astronomical Twilight
Moon
Length of Visible Light
Length of Day
Tomorrow will be .
, % of the Moon is Illuminated

Today's Extremes

State Highs State Lows

Community

WunderPhotos

Upload Photos

1,890,922 photos uploaded!

WunderBlog® & News

Nearby

Air Quality

  Air Quality AQ Index Pollutant
Not available.

Snow Depth

Station Depth Elevation

Earthquake Activity

City Distance Mag. Time & Date
Minimum magnitude displayed is 2.5.

Coastal Water Temperatures

Place Temperature

Stations

Nearby Weather Stations

Station Location Temp. Windchill Dew Point Humidity Wind Precip. Elev Updated Type
                   

Watches & Warnings

There are currently no watches in effect.